Time;durP1;ratioP1;P1;durP2;ratioP2;P2;SDS_P1;SDS_P2;PMS_P1;PMS_P2;Temp;Humidity;BMP_temperature;BMP_pressure;BME280_temperature;BME280_humidity;BME280_pressure;Samples;Min_cycle;Max_cycle;Signal;HPM_P1;HPM_P2
2023/12/12 00:00:59;;;;;;;2.27;2.13;;;;;;;5.76;90.29;95220.81;5133582;27;20441;-61
2023/12/12 00:03:28;;;;;;;14.63;2.80;;;;;;;5.38;94.86;95226.81;5133356;27;20435;-60
2023/12/12 00:06:01;;;;;;;2.77;2.47;;;;;;;5.78;95.32;95213.50;5133578;27;20435;-61
2023/12/12 00:08:30;;;;;;;1.97;1.30;;;;;;;5.47;94.82;95221.94;5133659;27;20487;-60
2023/12/12 00:10:58;;;;;;;10.53;2.70;;;;;;;5.56;97.77;95231.84;5133874;27;20495;-60
2023/12/12 00:13:27;;;;;;;2.40;2.30;;;;;;;5.56;96.12;95228.41;5132949;27;20930;-60
2023/12/12 00:15:57;;;;;;;2.67;2.47;;;;;;;5.81;95.58;95220.91;5133365;27;20490;-60
2023/12/12 00:18:25;;;;;;;1.87;1.77;;;;;;;5.85;94.94;95222.03;5133612;27;20959;-60
2023/12/12 00:20:54;;;;;;;2.00;1.90;;;;;;;6.09;92.73;95202.38;5133311;27;20865;-60
2023/12/12 00:23:23;;;;;;;3.00;2.80;;;;;;;6.39;90.07;95186.97;5132609;27;20462;-61
2023/12/12 00:25:51;;;;;;;17.50;2.10;;;;;;;6.40;89.35;95188.53;5132942;27;20529;-60
2023/12/12 00:28:20;;;;;;;9.93;5.63;;;;;;;5.04;96.19;95198.91;5105362;27;20439;-62
2023/12/12 00:30:48;;;;;;;9.07;4.07;;;;;;;4.43;100.00;95194.41;5132950;27;20973;-60
2023/12/12 00:33:18;;;;;;;8.80;2.80;;;;;;;4.31;100.00;95196.28;5132420;27;20442;-61
2023/12/12 00:35:47;;;;;;;6.47;3.27;;;;;;;4.77;100.00;95200.56;5133018;27;20943;-60
2023/12/12 00:38:15;;;;;;;1.33;1.30;;;;;;;5.34;100.00;95193.38;5133225;27;20491;-60
2023/12/12 00:40:52;;;;;;;3.53;3.23;;;;;;;5.52;98.30;95175.50;5132531;27;20526;-59
2023/12/12 00:43:21;;;;;;;1.83;1.73;;;;;;;5.19;98.77;95190.50;5132863;27;20499;-60
2023/12/12 00:45:50;;;;;;;1.63;1.53;;;;;;;5.23;100.00;95186.38;5132632;27;20474;-60
2023/12/12 00:48:20;;;;;;;2.70;1.50;;;;;;;4.83;100.00;95186.50;5132785;27;21002;-60
2023/12/12 00:50:49;;;;;;;1.43;1.40;;;;;;;5.12;100.00;95207.22;5132150;27;20476;-59
2023/12/12 00:53:17;;;;;;;2.33;2.23;;;;;;;4.93;98.47;95161.19;5133122;27;20931;-60
2023/12/12 00:55:46;;;;;;;1.47;1.37;;;;;;;4.95;99.80;95216.91;5133365;27;20509;-60
2023/12/12 00:58:14;;;;;;;0.97;0.83;;;;;;;5.27;97.65;95208.50;5132974;27;20470;-60
2023/12/12 01:00:43;;;;;;;1.17;1.07;;;;;;;5.54;94.90;95193.69;5132952;27;20478;-60
2023/12/12 01:03:11;;;;;;;1.10;0.93;;;;;;;5.53;93.55;95216.56;5132347;27;20438;-60
2023/12/12 01:05:41;;;;;;;1.30;1.07;;;;;;;5.49;94.56;95202.28;5132925;27;20503;-60
2023/12/12 01:08:10;;;;;;;0.83;0.83;;;;;;;5.58;93.77;95197.41;5132798;27;20510;-59
2023/12/12 01:10:38;;;;;;;1.20;1.10;;;;;;;5.36;95.35;95200.00;5133187;27;20442;-60
2023/12/12 01:13:07;;;;;;;3.60;1.47;;;;;;;5.30;94.50;95198.31;5130344;27;20480;-59
2023/12/12 01:15:36;;;;;;;2.33;2.03;;;;;;;5.41;97.50;95186.94;5121516;27;20959;-60
2023/12/12 01:18:04;;;;;;;2.47;0.97;;;;;;;5.73;99.92;95187.94;5132105;28;20443;-60
2023/12/12 01:20:33;;;;;;;2.40;2.20;;;;;;;5.39;100.00;95199.50;5132591;27;20474;-60
2023/12/12 01:23:03;;;;;;;1.67;1.57;;;;;;;5.32;100.00;95185.72;5132426;27;20487;-60
2023/12/12 01:25:32;;;;;;;1.57;1.47;;;;;;;5.64;98.90;95184.09;5132806;28;20507;-60
2023/12/12 01:28:00;;;;;;;3.30;1.43;;;;;;;5.61;95.72;95175.91;5132634;27;20434;-60
2023/12/12 01:30:29;;;;;;;2.00;1.77;;;;;;;5.06;97.67;95184.50;5132773;28;21145;-60
2023/12/12 01:32:57;;;;;;;0.80;0.60;;;;;;;5.47;100.00;95190.41;5132370;28;20479;-60
2023/12/12 01:35:26;;;;;;;7.23;1.37;;;;;;;5.48;97.33;95181.50;5132840;27;20488;-60
2023/12/12 01:37:54;;;;;;;1.30;1.20;;;;;;;5.39;96.91;95165.31;5132367;28;20466;-60
2023/12/12 01:40:24;;;;;;;3.37;1.07;;;;;;;5.25;97.42;95173.78;5132499;28;20578;-60
2023/12/12 01:43:04;;;;;;;1.57;1.27;;;;;;;5.11;98.29;95176.72;5132500;28;20458;-60
2023/12/12 01:45:33;;;;;;;5.20;2.30;;;;;;;5.35;97.69;95166.06;5131865;27;20469;-60
2023/12/12 01:48:02;;;;;;;1.60;1.50;;;;;;;5.54;95.41;95156.91;5132108;27;20519;-60
2023/12/12 01:50:31;;;;;;;1.80;1.33;;;;;;;5.18;96.73;95146.88;5131744;28;20857;-60
2023/12/12 01:52:59;;;;;;;2.47;1.97;;;;;;;5.13;98.67;95153.63;5132442;27;20946;-60
2023/12/12 01:55:30;;;;;;;1.10;1.03;;;;;;;5.21;100.00;95115.69;5132126;27;20434;-60
2023/12/12 01:57:59;;;;;;;1.00;0.97;;;;;;;5.60;100.00;95121.72;5132222;28;20427;-60
2023/12/12 02:00:27;;;;;;;2.53;1.37;;;;;;;5.68;100.00;95123.94;5132288;27;20477;-60
2023/12/12 02:02:56;;;;;;;1.07;1.07;;;;;;;5.49;99.79;95133.94;5132455;27;20525;-60
2023/12/12 02:05:27;;;;;;;3.20;3.00;;;;;;;4.92;100.00;95132.53;5132421;27;20442;-60
2023/12/12 02:07:57;;;;;;;2.30;1.43;;;;;;;5.04;100.00;95131.44;5132122;27;20431;-60
2023/12/12 02:10:26;;;;;;;2.20;2.00;;;;;;;5.19;98.94;95117.72;5131587;28;20448;-60
2023/12/12 02:12:56;;;;;;;1.93;1.83;;;;;;;5.25;97.95;95105.47;5133026;27;20442;-60
2023/12/12 02:15:25;;;;;;;1.60;1.50;;;;;;;5.33;99.21;95110.31;5136074;27;20426;-60
2023/12/12 02:17:54;;;;;;;1.40;1.30;;;;;;;5.70;99.18;95108.72;5135427;27;20787;-59
2023/12/12 02:20:22;;;;;;;1.90;1.80;;;;;;;5.85;98.78;95123.91;5136296;27;20599;-60
2023/12/12 02:22:52;;;;;;;1.47;1.37;;;;;;;5.95;96.65;95119.59;5135228;27;20483;-60
2023/12/12 02:25:21;;;;;;;7.70;1.60;;;;;;;6.08;96.22;95131.56;5135941;27;20863;-60
2023/12/12 02:27:50;;;;;;;2.30;2.10;;;;;;;6.06;96.05;95137.09;5135343;27;20514;-60
2023/12/12 02:30:19;;;;;;;1.90;1.80;;;;;;;5.54;95.48;95149.00;5135829;27;20919;-60
2023/12/12 02:32:47;;;;;;;0.93;0.93;;;;;;;5.64;97.25;95144.66;5134475;27;20513;-60
2023/12/12 02:35:16;;;;;;;2.20;2.10;;;;;;;5.70;95.21;95148.16;5135949;27;20514;-60
2023/12/12 02:37:44;;;;;;;1.10;1.00;;;;;;;5.98;92.80;95148.03;5134971;27;20434;-60
2023/12/12 02:40:14;;;;;;;1.40;0.87;;;;;;;5.61;93.49;95147.00;5135213;27;20493;-60
2023/12/12 02:42:46;;;;;;;1.17;1.10;;;;;;;5.52;95.34;95151.06;5135336;27;20485;-60
2023/12/12 02:45:15;;;;;;;1.20;1.10;;;;;;;5.72;93.47;95128.47;5134934;27;20438;-60
2023/12/12 02:47:43;;;;;;;1.77;1.67;;;;;;;5.73;92.69;95118.75;5108591;27;20438;-60
2023/12/12 02:50:12;;;;;;;3.10;0.90;;;;;;;5.54;93.54;95133.22;5135303;27;20534;-60
2023/12/12 02:52:41;;;;;;;1.20;1.10;;;;;;;5.60;93.64;95134.88;5135081;27;20855;-60
2023/12/12 02:55:10;;;;;;;1.23;1.10;;;;;;;5.59;92.42;95135.94;5134771;27;20430;-60
2023/12/12 02:57:40;;;;;;;0.50;0.47;;;;;;;5.60;92.63;95145.38;5135140;27;20946;-60
2023/12/12 03:00:10;;;;;;;0.83;0.83;;;;;;;5.64;92.11;95146.50;5134462;27;20549;-60
2023/12/12 03:02:38;;;;;;;2.43;1.50;;;;;;;5.52;93.79;95140.53;5134404;27;20499;-60
2023/12/12 03:05:07;;;;;;;4.87;1.47;;;;;;;5.51;93.73;95163.44;5134769;27;20439;-59
2023/12/12 03:07:36;;;;;;;1.47;1.40;;;;;;;5.54;92.89;95144.53;5134766;27;20923;-60
2023/12/12 03:10:06;;;;;;;7.60;1.90;;;;;;;5.43;92.43;95134.13;5134999;27;20434;-60
2023/12/12 03:12:35;;;;;;;2.57;2.30;;;;;;;5.33;93.38;95124.25;5134887;27;20437;-60
2023/12/12 03:15:06;;;;;;;1.23;1.23;;;;;;;5.30;93.96;95129.19;5134830;27;20476;-60
2023/12/12 03:17:34;;;;;;;2.20;1.97;;;;;;;5.37;93.70;95145.59;5135087;27;20437;-60
2023/12/12 03:20:07;;;;;;;4.20;3.40;;;;;;;5.52;95.32;95154.50;5134099;27;20477;-60
2023/12/12 03:22:36;;;;;;;1.10;1.10;;;;;;;5.67;95.13;95125.78;5134711;27;20435;-60
2023/12/12 03:25:05;;;;;;;1.50;1.40;;;;;;;5.69;92.65;95112.41;5107664;27;20952;-60
2023/12/12 03:27:34;;;;;;;1.47;1.37;;;;;;;5.43;94.13;95105.22;5133895;27;20776;-60
2023/12/12 03:30:04;;;;;;;2.47;1.70;;;;;;;5.20;94.92;95055.47;5134771;27;20911;-61
2023/12/12 03:32:33;;;;;;;2.30;1.53;;;;;;;5.52;94.73;95096.66;5134453;27;20438;-60
2023/12/12 03:35:01;;;;;;;2.40;0.70;;;;;;;5.60;94.03;95103.31;5134621;27;20480;-60
2023/12/12 03:37:30;;;;;;;2.30;1.23;;;;;;;5.57;92.44;95119.59;5134058;27;21070;-60
2023/12/12 03:39:59;;;;;;;0.83;0.80;;;;;;;5.43;92.38;95111.28;5134108;27;21117;-59
2023/12/12 03:42:27;;;;;;;2.53;2.43;;;;;;;5.38;93.30;95136.66;5134028;27;20442;-59
2023/12/12 03:44:56;;;;;;;2.50;1.17;;;;;;;5.37;98.23;95150.84;5134108;27;20522;-59
2023/12/12 03:47:26;;;;;;;2.10;0.90;;;;;;;5.22;100.00;95155.88;5133920;27;20429;-61
2023/12/12 03:49:54;;;;;;;1.80;1.70;;;;;;;5.04;97.14;95159.53;5134176;27;20450;-61
2023/12/12 03:52:23;;;;;;;1.37;0.63;;;;;;;4.85;98.59;95174.72;5133782;27;20853;-60
2023/12/12 03:54:52;;;;;;;5.73;3.03;;;;;;;4.38;99.64;95154.94;5133731;27;20950;-60
2023/12/12 03:57:20;;;;;;;1.13;1.13;;;;;;;4.44;100.00;95178.44;5133651;27;20434;-59
2023/12/12 03:59:49;;;;;;;0.70;0.70;;;;;;;4.51;100.00;95180.91;5134139;27;20474;-59
2023/12/12 04:02:17;;;;;;;0.83;0.83;;;;;;;4.49;100.00;95180.38;5133478;27;20531;-59
2023/12/12 04:04:47;;;;;;;1.53;1.43;;;;;;;4.82;100.00;95183.06;5134090;27;20499;-59
2023/12/12 04:07:18;;;;;;;1.70;1.60;;;;;;;4.99;99.16;95176.00;5133723;27;20439;-59
2023/12/12 04:09:46;;;;;;;4.13;2.00;;;;;;;5.11;97.63;95178.53;5133643;27;20525;-59
2023/12/12 04:12:15;;;;;;;1.17;1.13;;;;;;;5.20;96.88;95179.75;5133485;27;20438;-60
2023/12/12 04:14:43;;;;;;;0.97;0.97;;;;;;;5.30;96.17;95172.03;5133644;27;20503;-59
2023/12/12 04:17:13;;;;;;;8.83;3.00;;;;;;;5.23;94.70;95160.91;5132896;27;20953;-60
2023/12/12 04:19:41;;;;;;;1.97;1.77;;;;;;;5.21;95.54;95155.09;5133561;27;20515;-60
2023/12/12 04:22:11;;;;;;;2.53;1.83;;;;;;;5.05;94.01;95145.38;5133695;27;20854;-60
2023/12/12 04:24:40;;;;;;;2.40;2.23;;;;;;;4.85;95.40;95132.72;5119683;27;20499;-60
2023/12/12 04:27:09;;;;;;;2.27;1.40;;;;;;;4.71;97.35;95120.91;5132796;27;20438;-60
2023/12/12 04:29:38;;;;;;;4.53;2.13;;;;;;;4.63;98.56;95123.91;5132701;27;20434;-60
2023/12/12 04:32:07;;;;;;;3.77;2.27;;;;;;;4.61;99.15;95138.31;5132815;27;20513;-60
2023/12/12 04:34:35;;;;;;;3.80;2.93;;;;;;;4.56;99.45;95125.91;5133495;27;20423;-60
2023/12/12 04:37:04;;;;;;;3.20;2.60;;;;;;;4.58;100.00;95146.69;5133083;27;20545;-60
2023/12/12 04:39:36;;;;;;;2.57;2.00;;;;;;;4.49;100.00;95165.41;5133081;27;20800;-60
2023/12/12 04:42:05;;;;;;;1.77;1.67;;;;;;;4.24;100.00;95161.53;5132153;27;20466;-60
2023/12/12 04:44:34;;;;;;;2.53;2.33;;;;;;;3.75;100.00;95166.31;5107002;27;20851;-60
2023/12/12 04:47:03;;;;;;;3.20;2.90;;;;;;;3.80;100.00;95158.53;5132534;27;20438;-59
2023/12/12 04:49:32;;;;;;;10.23;3.33;;;;;;;3.79;100.00;95167.44;5132770;27;20466;-59
2023/12/12 04:52:01;;;;;;;3.57;2.20;;;;;;;3.94;100.00;95197.63;5132437;27;20470;-60
2023/12/12 04:54:29;;;;;;;2.83;1.20;;;;;;;4.07;100.00;95218.34;5132733;27;20491;-60
2023/12/12 04:57:00;;;;;;;2.13;1.43;;;;;;;4.01;100.00;95217.44;5133173;27;20860;-60
2023/12/12 04:59:29;;;;;;;2.50;2.00;;;;;;;3.90;100.00;95210.38;5132965;27;20946;-60
2023/12/12 05:01:58;;;;;;;3.40;2.40;;;;;;;3.92;100.00;95205.75;5132907;27;20816;-60
2023/12/12 05:04:27;;;;;;;1.23;1.03;;;;;;;4.00;100.00;95223.72;5132539;27;20441;-61
2023/12/12 05:06:56;;;;;;;2.40;1.87;;;;;;;4.13;100.00;95215.59;5132689;27;20430;-60
2023/12/12 05:09:24;;;;;;;1.50;1.40;;;;;;;3.98;100.00;95235.47;5133023;27;20558;-60
2023/12/12 05:11:53;;;;;;;10.07;3.80;;;;;;;3.73;100.00;95233.88;5132218;27;20431;-60
2023/12/12 05:14:23;;;;;;;3.73;3.53;;;;;;;3.50;100.00;95207.69;5132498;27;20438;-60
2023/12/12 05:16:52;;;;;;;3.87;2.70;;;;;;;3.70;100.00;95197.66;5132501;27;20495;-60
2023/12/12 05:19:34;;;;;;;4.67;2.80;;;;;;;4.03;100.00;95197.03;5132387;28;20439;-60
2023/12/12 05:22:03;;;;;;;2.47;2.23;;;;;;;4.17;100.00;95189.72;5132299;27;20981;-61
2023/12/12 05:24:32;;;;;;;6.90;3.23;;;;;;;4.33;100.00;95187.16;5132451;28;20442;-60
2023/12/12 05:27:00;;;;;;;2.60;2.50;;;;;;;4.46;100.00;95191.31;5132521;28;20437;-60
2023/12/12 05:29:30;;;;;;;1.63;1.53;;;;;;;4.51;100.00;95199.28;5131614;27;20446;-61
2023/12/12 05:31:59;;;;;;;2.17;1.33;;;;;;;4.71;100.00;95196.22;5132588;28;20430;-60
2023/12/12 05:34:27;;;;;;;2.87;1.63;;;;;;;4.67;100.00;95198.56;5127780;28;20510;-60
2023/12/12 05:36:56;;;;;;;5.63;3.17;;;;;;;4.19;100.00;95201.56;5129363;28;20472;-60
2023/12/12 05:39:25;;;;;;;4.67;2.00;;;;;;;4.11;100.00;95198.50;5131955;28;20529;-60
2023/12/12 05:41:54;;;;;;;4.77;2.60;;;;;;;3.92;100.00;95173.47;5131933;27;20522;-60
2023/12/12 05:44:23;;;;;;;3.20;2.90;;;;;;;4.16;100.00;95202.03;5131963;28;20431;-60
2023/12/12 05:46:53;;;;;;;4.47;4.07;;;;;;;4.23;100.00;95196.63;5131761;28;20448;-60
2023/12/12 05:49:22;;;;;;;3.20;3.00;;;;;;;3.91;100.00;95198.88;5135039;27;20449;-61
2023/12/12 05:51:51;;;;;;;6.90;2.73;;;;;;;3.99;100.00;95197.72;5135905;27;20482;-61
2023/12/12 05:54:20;;;;;;;4.27;2.73;;;;;;;3.70;100.00;95223.06;5136066;27;20497;-61
2023/12/12 05:56:53;;;;;;;5.43;2.97;;;;;;;3.79;100.00;95204.13;5136099;27;20842;-59
2023/12/12 05:59:21;;;;;;;2.03;1.93;;;;;;;4.11;100.00;95219.47;5135505;27;20458;-60
2023/12/12 06:01:50;;;;;;;3.87;3.70;;;;;;;3.96;100.00;95174.59;5135427;27;20518;-59
2023/12/12 06:04:20;;;;;;;7.90;2.70;;;;;;;4.25;100.00;95158.66;5135961;27;20809;-60
2023/12/12 06:06:48;;;;;;;1.90;1.80;;;;;;;4.54;100.00;95209.31;5135613;27;20434;-59
2023/12/12 06:09:17;;;;;;;1.47;1.37;;;;;;;4.77;100.00;95225.00;5136000;27;20477;-59
2023/12/12 06:11:46;;;;;;;2.57;2.00;;;;;;;5.02;99.71;95240.38;5135727;27;20445;-59
2023/12/12 06:14:14;;;;;;;3.20;1.37;;;;;;;4.84;98.48;95245.84;5135875;27;20839;-59
2023/12/12 06:16:43;;;;;;;2.07;1.97;;;;;;;4.70;100.00;95247.97;5135999;27;20793;-59
2023/12/12 06:19:12;;;;;;;7.60;3.43;;;;;;;4.75;100.00;95248.06;5135975;27;20442;-60
2023/12/12 06:21:42;;;;;;;2.87;1.70;;;;;;;4.95;100.00;95237.94;5135526;27;20473;-59
2023/12/12 06:24:10;;;;;;;3.83;1.50;;;;;;;5.19;99.05;95240.44;5136072;27;20532;-60
2023/12/12 06:26:38;;;;;;;7.50;1.93;;;;;;;5.15;98.07;95237.47;5135951;27;20503;-60
2023/12/12 06:29:08;;;;;;;11.20;1.90;;;;;;;5.35;97.63;95243.06;5135107;27;20442;-60
2023/12/12 06:31:37;;;;;;;5.33;2.80;;;;;;;5.44;96.63;95241.63;5134486;27;20426;-59
2023/12/12 06:34:06;;;;;;;2.33;2.23;;;;;;;5.73;94.42;95239.72;5135229;27;20490;-59
2023/12/12 06:36:37;;;;;;;3.40;3.10;;;;;;;5.78;93.71;95227.44;5135254;27;20830;-60
2023/12/12 06:39:09;;;;;;;1.70;1.60;;;;;;;5.58;92.83;95231.59;5135018;27;20438;-62
2023/12/12 06:41:38;;;;;;;8.40;3.60;;;;;;;5.50;93.69;95221.47;5134721;27;20437;-59
2023/12/12 06:44:07;;;;;;;3.57;3.47;;;;;;;5.24;94.22;95222.91;5135171;27;20462;-59
2023/12/12 06:46:36;;;;;;;14.03;4.17;;;;;;;5.40;95.07;95252.84;5134685;27;20445;-60
2023/12/12 06:49:06;;;;;;;3.53;3.10;;;;;;;5.29;96.84;95249.25;5135172;27;20858;-60
2023/12/12 06:51:36;;;;;;;4.40;4.00;;;;;;;5.14;98.47;95251.63;5134782;27;20561;-61
2023/12/12 06:54:06;;;;;;;3.10;2.93;;;;;;;5.24;99.43;95240.53;5134232;27;20480;-61
2023/12/12 06:56:35;;;;;;;9.67;5.50;;;;;;;5.44;97.51;95252.13;5135153;27;20438;-61
2023/12/12 06:59:05;;;;;;;8.87;6.30;;;;;;;5.65;96.19;95243.53;5134217;27;20986;-60
2023/12/12 07:01:33;;;;;;;8.50;4.27;;;;;;;5.64;95.75;95236.69;5134925;27;20434;-60
2023/12/12 07:04:02;;;;;;;4.43;3.83;;;;;;;5.63;96.57;95256.13;5108540;27;20511;-62
2023/12/12 07:06:31;;;;;;;3.40;3.10;;;;;;;5.65;95.57;95261.94;5135034;27;20511;-60
2023/12/12 07:09:00;;;;;;;6.00;5.50;;;;;;;5.59;96.86;95260.25;5134269;27;21030;-61
2023/12/12 07:11:29;;;;;;;9.73;3.83;;;;;;;5.65;98.51;95258.50;5134127;27;20434;-62
2023/12/12 07:13:58;;;;;;;6.70;4.17;;;;;;;5.59;98.97;95254.22;5135139;27;20445;-62
2023/12/12 07:16:26;;;;;;;5.83;5.20;;;;;;;4.84;100.00;95262.41;5134064;27;20495;-61
2023/12/12 07:18:55;;;;;;;5.50;5.10;;;;;;;5.24;100.00;95251.03;5133985;27;20466;-61
2023/12/12 07:21:24;;;;;;;3.90;3.60;;;;;;;5.31;100.00;95247.22;5134022;27;20809;-61
2023/12/12 07:23:53;;;;;;;5.50;5.20;;;;;;;5.26;100.00;95280.47;5133862;27;20502;-62
2023/12/12 07:26:24;;;;;;;3.80;3.60;;;;;;;5.26;100.00;95262.91;5132929;27;20610;-62
2023/12/12 07:28:54;;;;;;;5.57;4.97;;;;;;;5.01;100.00;95265.84;5134949;27;20430;-63
2023/12/12 07:31:22;;;;;;;5.23;4.90;;;;;;;5.24;100.00;95280.69;5134173;27;20927;-62
2023/12/12 07:33:51;;;;;;;7.00;2.90;;;;;;;5.24;100.00;95277.31;5133898;27;20534;-62
2023/12/12 07:36:20;;;;;;;5.93;4.40;;;;;;;5.41;100.00;95280.75;5134257;27;20514;-63
2023/12/12 07:38:49;;;;;;;3.30;2.60;;;;;;;5.81;99.05;95285.84;5134164;27;20438;-63
2023/12/12 07:41:18;;;;;;;4.00;3.80;;;;;;;6.38;95.02;95285.38;5133711;27;20973;-63
2023/12/12 07:43:46;;;;;;;1.53;1.43;;;;;;;6.88;90.46;95284.44;5133980;27;20570;-60
2023/12/12 07:46:16;;;;;;;13.57;3.27;;;;;;;7.45;86.39;95285.53;5107934;27;20435;-62
2023/12/12 07:48:45;;;;;;;8.63;2.80;;;;;;;7.85;83.47;95285.06;5133585;27;20521;-61
2023/12/12 07:51:14;;;;;;;1.13;1.03;;;;;;;8.31;80.83;95280.91;5133807;27;20470;-62
2023/12/12 07:53:42;;;;;;;5.00;4.17;;;;;;;8.92;77.52;95274.88;5133638;27;20438;-61
2023/12/12 07:56:11;;;;;;;2.87;2.63;;;;;;;9.11;76.87;95277.81;5134156;27;20441;-62
2023/12/12 07:58:40;;;;;;;7.87;4.50;;;;;;;9.50;74.96;95272.88;5133408;27;20438;-62
2023/12/12 08:01:09;;;;;;;3.77;3.40;;;;;;;9.57;73.42;95274.22;5134060;27;20430;-62
2023/12/12 08:03:39;;;;;;;5.47;4.37;;;;;;;10.09;72.32;95275.78;5132750;27;20481;-63
2023/12/12 08:06:08;;;;;;;4.70;4.30;;;;;;;10.87;70.45;95274.28;5131942;27;21090;-61
2023/12/12 08:08:37;;;;;;;6.73;3.73;;;;;;;11.55;67.37;95274.44;5132363;27;20958;-55
2023/12/12 08:11:12;;;;;;;3.30;3.10;;;;;;;11.62;66.22;95261.66;5133407;27;20446;-56
2023/12/12 08:13:41;;;;;;;4.00;3.70;;;;;;;11.75;65.09;95267.19;5133643;27;20445;-55
2023/12/12 08:16:10;;;;;;;5.40;4.57;;;;;;;12.19;63.39;95259.09;5133188;27;20438;-54
2023/12/12 08:18:40;;;;;;;5.40;5.00;;;;;;;12.29;62.58;95255.56;5133143;27;21094;-54
2023/12/12 08:21:10;;;;;;;7.97;5.00;;;;;;;12.79;60.84;95251.53;5130245;27;20466;-54
2023/12/12 08:23:41;;;;;;;5.20;4.63;;;;;;;13.03;61.25;95249.66;5132765;27;20482;-54
2023/12/12 08:26:11;;;;;;;7.17;4.27;;;;;;;12.90;59.53;95245.03;5132131;27;21010;-53
2023/12/12 08:28:39;;;;;;;4.43;4.13;;;;;;;13.40;58.22;95263.03;5133159;27;20491;-53
2023/12/12 08:31:08;;;;;;;4.90;4.47;;;;;;;13.70;56.61;95259.13;5131921;27;20434;-54
2023/12/12 08:33:37;;;;;;;4.60;4.40;;;;;;;14.06;56.28;95256.69;5131978;27;20445;-55
2023/12/12 08:36:08;;;;;;;3.17;2.97;;;;;;;14.61;54.35;95251.19;5127157;27;20446;-55
2023/12/12 08:38:39;;;;;;;16.03;5.07;;;;;;;15.00;52.94;95263.25;5128256;27;20434;-55
2023/12/12 08:41:07;;;;;;;7.00;3.60;;;;;;;15.04;52.94;95264.22;5133112;27;21022;-56
2023/12/12 08:43:41;;;;;;;5.30;2.73;;;;;;;16.47;50.49;95254.22;5128803;27;20497;-57
2023/12/12 08:46:10;;;;;;;3.40;2.93;;;;;;;16.76;48.69;95239.59;5130860;27;20477;-57
2023/12/12 08:48:38;;;;;;;2.13;2.03;;;;;;;17.00;48.42;95243.44;5133286;27;20545;-58
2023/12/12 08:51:09;;;;;;;4.67;4.20;;;;;;;16.86;46.51;95239.31;5132474;27;20501;-58
2023/12/12 08:53:37;;;;;;;2.00;1.90;;;;;;;17.81;46.93;95227.63;5132710;27;20516;-59
2023/12/12 08:56:14;;;;;;;3.83;3.50;;;;;;;17.46;45.53;95226.81;5133198;27;20441;-57
2023/12/12 08:58:43;;;;;;;9.50;1.73;;;;;;;17.26;43.87;95216.72;5132307;27;20521;-57
2023/12/12 09:01:16;;;;;;;4.63;1.50;;;;;;;18.02;43.43;95228.59;5132141;27;20434;-57
2023/12/12 09:03:45;;;;;;;1.13;1.13;;;;;;;18.24;43.39;95224.94;5132011;27;20474;-57
2023/12/12 09:06:16;;;;;;;3.13;1.40;;;;;;;17.89;42.79;95220.69;5131736;27;20469;-57
2023/12/12 09:08:44;;;;;;;1.10;1.10;;;;;;;18.30;42.81;95213.69;5112825;27;20695;-57
2023/12/12 09:11:14;;;;;;;3.03;1.50;;;;;;;18.16;42.42;95180.13;5112389;28;20431;-57
2023/12/12 09:13:43;;;;;;;5.10;1.77;;;;;;;18.48;42.57;95206.41;5132629;27;20473;-57
2023/12/12 09:16:12;;;;;;;19.40;2.07;;;;;;;18.25;43.45;95210.38;5132508;27;20525;-58
2023/12/12 09:18:40;;;;;;;2.70;2.60;;;;;;;16.78;44.33;95205.25;5132322;27;20443;-56
2023/12/12 09:21:09;;;;;;;1.80;1.43;;;;;;;17.57;44.72;95193.28;5132357;27;20438;-58
2023/12/12 09:23:42;;;;;;;3.30;1.97;;;;;;;18.11;44.01;95191.03;5132163;27;20505;-58
2023/12/12 09:26:14;;;;;;;6.03;2.57;;;;;;;18.37;43.47;95189.03;5131729;28;20514;-58
2023/12/12 09:28:43;;;;;;;1.50;1.40;;;;;;;18.27;43.29;95190.19;5132824;28;20506;-58
2023/12/12 09:31:12;;;;;;;2.00;1.83;;;;;;;18.67;42.91;95126.25;5131969;27;20435;-57
2023/12/12 09:33:41;;;;;;;2.87;1.73;;;;;;;18.13;42.48;95184.22;5132747;27;20517;-56
2023/12/12 09:36:10;;;;;;;1.70;1.53;;;;;;;17.59;42.47;95183.03;5131778;27;20430;-57
2023/12/12 09:38:41;;;;;;;1.80;1.70;;;;;;;18.49;41.47;95173.09;5132045;28;20957;-56
2023/12/12 09:41:18;;;;;;;3.50;1.80;;;;;;;18.01;41.42;95106.31;5132253;27;20434;-56
2023/12/12 09:43:48;;;;;;;4.97;2.83;;;;;;;18.73;41.26;95167.94;5131699;28;20526;-57
2023/12/12 09:46:19;;;;;;;2.53;2.27;;;;;;;19.43;40.36;95163.72;5132259;28;20458;-56
2023/12/12 09:48:49;;;;;;;5.60;2.20;;;;;;;19.77;39.18;95171.50;5132439;27;20442;-56
2023/12/12 09:51:18;;;;;;;1.93;1.80;;;;;;;19.89;40.22;95165.34;5131981;27;20462;-57
2023/12/12 09:53:49;;;;;;;2.43;2.23;;;;;;;20.20;39.64;95169.16;5131829;27;20442;-57
2023/12/12 09:56:18;;;;;;;2.17;1.97;;;;;;;20.15;39.48;95168.59;5131616;27;20445;-56
2023/12/12 09:58:49;;;;;;;1.87;1.77;;;;;;;19.85;40.11;95154.50;5125892;28;20439;-56
2023/12/12 10:01:18;;;;;;;1.70;1.70;;;;;;;19.51;39.39;95173.59;5125210;28;20434;-56
2023/12/12 10:03:48;;;;;;;1.60;1.37;;;;;;;19.21;40.17;95166.69;5132013;28;20466;-57
2023/12/12 10:06:18;;;;;;;4.37;1.47;;;;;;;19.22;40.34;95169.06;5132119;28;20579;-56
2023/12/12 10:08:49;;;;;;;2.70;1.43;;;;;;;19.39;40.09;95117.91;5131699;27;20495;-56
2023/12/12 10:11:19;;;;;;;2.23;2.13;;;;;;;20.14;40.15;95162.41;5131743;27;20441;-58
2023/12/12 10:13:50;;;;;;;6.23;2.20;;;;;;;20.15;39.84;95163.19;5132307;27;20442;-57
2023/12/12 10:16:19;;;;;;;1.83;1.73;;;;;;;20.68;39.07;95165.00;5131800;28;21031;-57
2023/12/12 10:18:50;;;;;;;1.43;1.33;;;;;;;20.16;40.04;95159.41;5132417;28;20434;-57
2023/12/12 10:21:20;;;;;;;4.80;1.93;;;;;;;20.30;38.23;95154.53;5131217;28;20447;-57
2023/12/12 10:23:52;;;;;;;1.83;0.90;;;;;;;20.35;39.66;95159.69;5131125;28;20526;-56
2023/12/12 10:26:25;;;;;;;0.93;0.80;;;;;;;21.46;38.51;95154.69;5131870;28;20430;-56
2023/12/12 10:28:55;;;;;;;0.70;0.70;;;;;;;21.53;37.67;95142.19;5131873;27;20430;-56
2023/12/12 10:31:24;;;;;;;1.00;0.90;;;;;;;20.92;37.55;95110.31;5131592;27;20906;-56
2023/12/12 10:33:53;;;;;;;6.53;1.27;;;;;;;20.77;37.83;95131.44;5132021;27;20470;-57
2023/12/12 10:36:22;;;;;;;2.00;1.30;;;;;;;20.60;38.35;95130.88;5123870;27;20452;-57
2023/12/12 10:38:52;;;;;;;1.03;0.93;;;;;;;21.02;38.20;95121.44;5134582;27;20434;-57
2023/12/12 10:41:21;;;;;;;1.00;1.00;;;;;;;20.98;37.34;95141.28;5134803;27;20470;-57
2023/12/12 10:43:56;;;;;;;1.83;1.37;;;;;;;21.24;37.24;95137.13;5134680;27;20437;-57
2023/12/12 10:46:26;;;;;;;3.47;3.17;;;;;;;21.24;37.07;95133.66;5135297;27;20458;-58
2023/12/12 10:48:57;;;;;;;2.83;1.60;;;;;;;21.51;36.43;95124.78;5134663;27;20438;-57
2023/12/12 10:51:27;;;;;;;1.47;1.37;;;;;;;21.57;36.80;95120.75;5135211;27;20466;-57
2023/12/12 10:53:58;;;;;;;3.33;3.03;;;;;;;22.06;37.48;95127.50;5134785;27;20470;-57
2023/12/12 10:56:35;;;;;;;2.37;2.27;;;;;;;22.12;37.48;95117.22;5134801;27;20446;-57
2023/12/12 10:59:04;;;;;;;0.60;0.50;;;;;;;23.16;35.54;95103.91;5110137;27;20441;-57
2023/12/12 11:01:54;;;;;;;3.07;1.43;;;;;;;23.50;35.62;95107.75;5134255;27;20524;-57
2023/12/12 11:04:24;;;;;;;1.03;1.03;;;;;;;22.77;34.73;95121.97;5134884;27;20492;-57
2023/12/12 11:06:53;;;;;;;0.70;0.70;;;;;;;22.36;35.66;95111.69;5134706;27;20430;-57
2023/12/12 11:09:24;;;;;;;1.10;1.03;;;;;;;22.45;36.11;95117.69;5134864;27;20449;-55
2023/12/12 11:11:55;;;;;;;10.80;1.13;;;;;;;22.47;35.54;95126.22;5134949;27;20439;-55
2023/12/12 11:14:26;;;;;;;0.80;0.80;;;;;;;22.90;36.10;95121.84;5134417;27;20438;-57
2023/12/12 11:16:59;;;;;;;3.23;0.87;;;;;;;23.84;35.01;95098.75;5134384;27;20442;-56
2023/12/12 11:19:28;;;;;;;0.80;0.80;;;;;;;23.04;34.59;95120.28;5134129;27;20442;-56
2023/12/12 11:21:57;;;;;;;1.87;1.07;;;;;;;22.53;34.85;94957.38;5134409;27;20442;-56
2023/12/12 11:25:08;;;;;;;10.23;1.27;;;;;;;22.85;35.12;95092.38;5120323;27;20467;-57
2023/12/12 11:27:40;;;;;;;1.67;1.57;;;;;;;22.42;34.80;95096.78;5133871;27;20442;-56
2023/12/12 11:30:10;;;;;;;2.93;1.80;;;;;;;22.89;34.86;95099.47;5134328;27;20430;-56
2023/12/12 11:32:39;;;;;;;3.43;3.13;;;;;;;22.31;34.47;95100.34;5134304;27;20434;-56
2023/12/12 11:35:26;;;;;;;2.77;1.40;;;;;;;22.52;34.51;95098.94;5133508;27;20966;-56
2023/12/12 11:37:55;;;;;;;3.87;1.83;;;;;;;22.35;34.98;95088.50;5129311;27;20442;-56
2023/12/12 11:40:27;;;;;;;3.30;1.90;;;;;;;22.36;34.47;95044.19;5133642;27;21147;-57
2023/12/12 11:43:01;;;;;;;1.13;1.03;;;;;;;22.54;34.61;95091.28;5133870;27;20462;-57
2023/12/12 11:45:32;;;;;;;1.53;1.33;;;;;;;22.48;34.37;95089.19;5133071;27;20984;-57
2023/12/12 11:48:02;;;;;;;1.90;1.80;;;;;;;22.07;35.17;95091.28;5133463;27;20976;-57